Time;durP1;ratioP1;P1;durP2;ratioP2;P2;SDS_P1;SDS_P2;PMS_P1;PMS_P2;Temp;Humidity;BMP_temperature;BMP_pressure;BME280_temperature;BME280_humidity;BME280_pressure;Samples;Min_cycle;Max_cycle;Signal;HPM_P1;HPM_P2
2023/01/21 00:01:19;;;;;;;37.77;18.03;;;-2.90;99.90;;;;;;4823385;29;20212;-88
2023/01/21 00:03:45;;;;;;;49.30;23.13;;;-2.80;99.90;;;;;;4810854;29;20189;-88
2023/01/21 00:06:13;;;;;;;51.97;25.20;;;-2.80;99.90;;;;;;4810732;29;20213;-88
2023/01/21 00:08:39;;;;;;;55.80;26.27;;;-2.80;99.90;;;;;;4811363;29;20185;-88
2023/01/21 00:11:06;;;;;;;49.57;23.53;;;-2.70;99.90;;;;;;4827664;29;20578;-89
2023/01/21 00:13:34;;;;;;;44.33;21.60;;;-2.70;99.90;;;;;;4811318;29;20189;-88
2023/01/21 00:16:01;;;;;;;36.73;18.73;;;-2.60;99.90;;;;;;4827525;29;20196;-89
2023/01/21 00:18:27;;;;;;;44.10;21.33;;;-2.60;99.90;;;;;;4811117;29;20283;-89
2023/01/21 00:20:52;;;;;;;42.60;21.57;;;-2.60;99.90;;;;;;4826308;29;20227;-88
2023/01/21 00:23:18;;;;;;;36.77;19.77;;;-2.50;99.90;;;;;;4811188;29;20194;-88
2023/01/21 00:25:45;;;;;;;32.60;17.77;;;-2.50;99.90;;;;;;4811329;29;20652;-88
2023/01/21 00:28:10;;;;;;;31.00;15.70;;;-2.40;99.90;;;;;;4811240;29;20218;-89
2023/01/21 00:30:36;;;;;;;35.40;17.40;;;-2.40;99.90;;;;;;4811853;29;20586;-89
2023/01/21 00:33:03;;;;;;;37.90;18.60;;;-2.30;99.90;;;;;;4828715;29;20251;-89
2023/01/21 00:35:36;;;;;;;35.03;18.37;;;-2.30;99.90;;;;;;4845472;29;20209;-87
2023/01/21 00:38:02;;;;;;;40.00;20.67;;;-2.30;99.90;;;;;;4829247;29;20578;-89
2023/01/21 00:40:28;;;;;;;35.43;17.80;;;-2.20;99.90;;;;;;4829042;29;20193;-88
2023/01/21 00:42:54;;;;;;;31.90;16.53;;;-2.30;99.90;;;;;;5265118;23;20327;-87
2023/01/21 00:45:19;;;;;;;28.70;16.50;;;-2.30;99.90;;;;;;4846880;29;20231;-88
2023/01/21 00:47:46;;;;;;;32.67;17.27;;;-2.30;99.90;;;;;;4863661;29;20184;-88
2023/01/21 00:50:11;;;;;;;35.60;16.37;;;-2.30;99.90;;;;;;4847076;29;20340;-88
2023/01/21 00:52:37;;;;;;;26.90;15.67;;;-2.20;99.90;;;;;;4847266;29;20329;-89
2023/01/21 00:55:04;;;;;;;28.17;14.73;;;-2.20;99.90;;;;;;4861802;29;20544;-88
2023/01/21 00:57:29;;;;;;;26.57;14.33;;;-2.20;99.90;;;;;;4847185;29;20275;-89
2023/01/21 00:59:55;;;;;;;30.27;15.23;;;-2.20;99.90;;;;;;4847141;29;20267;-89
2023/01/21 01:02:21;;;;;;;28.87;14.60;;;-2.20;99.90;;;;;;4863302;29;20244;-89
2023/01/21 01:04:51;;;;;;;30.43;15.70;;;-2.20;99.90;;;;;;4862145;29;20188;-88
2023/01/21 01:07:16;;;;;;;30.17;15.07;;;-2.20;99.90;;;;;;4847303;29;20216;-88
2023/01/21 01:09:42;;;;;;;28.07;14.27;;;-2.20;99.90;;;;;;4847200;29;20212;-88
2023/01/21 01:12:08;;;;;;;26.20;13.27;;;-2.20;99.90;;;;;;4846952;29;20683;-88
2023/01/21 01:14:35;;;;;;;24.40;13.13;;;-2.20;99.90;;;;;;4846244;29;20191;-89
2023/01/21 01:17:00;;;;;;;29.20;14.33;;;-2.10;99.90;;;;;;4846933;29;20536;-89
2023/01/21 01:19:26;;;;;;;23.97;13.77;;;-2.10;99.90;;;;;;4846658;29;20294;-88
2023/01/21 01:21:52;;;;;;;26.40;14.20;;;-2.10;99.90;;;;;;4863307;29;20225;-89
2023/01/21 01:24:31;;;;;;;26.97;13.20;;;-2.10;99.90;;;;;;4863051;29;20270;-88
2023/01/21 01:26:58;;;;;;;28.53;13.73;;;-2.10;99.90;;;;;;4846772;29;20274;-89
2023/01/21 01:29:23;;;;;;;23.13;13.33;;;-2.00;99.90;;;;;;4862980;29;20188;-89
2023/01/21 01:31:49;;;;;;;25.80;13.70;;;-2.00;99.90;;;;;;4846565;29;20188;-89
2023/01/21 01:34:15;;;;;;;26.57;14.47;;;-2.00;99.90;;;;;;4862927;29;20195;-89
2023/01/21 01:36:41;;;;;;;24.30;13.33;;;-1.90;99.90;;;;;;4846572;29;20192;-90
2023/01/21 01:39:06;;;;;;;25.33;13.60;;;-1.90;99.90;;;;;;4846360;29;20200;-88
2023/01/21 01:41:34;;;;;;;25.83;13.83;;;-1.90;99.90;;;;;;4846619;29;20188;-89
2023/01/21 01:44:25;;;;;;;23.70;13.53;;;-1.90;99.90;;;;;;4846067;29;20236;-89
2023/01/21 01:46:51;;;;;;;28.53;13.93;;;-1.80;99.90;;;;;;4861747;29;20379;-90
2023/01/21 01:49:20;;;;;;;31.27;15.13;;;-1.80;99.90;;;;;;4863134;29;20218;-89
2023/01/21 01:51:53;;;;;;;29.07;14.60;;;-1.70;99.90;;;;;;4861911;29;20190;-90
2023/01/21 01:54:27;;;;;;;28.10;14.93;;;-1.70;99.90;;;;;;4861724;29;20184;-90
2023/01/21 01:56:56;;;;;;;26.90;14.03;;;-1.70;99.90;;;;;;4861759;29;20294;-89
2023/01/21 01:59:22;;;;;;;27.70;14.63;;;-1.60;99.90;;;;;;4861406;29;20683;-89
2023/01/21 02:01:48;;;;;;;30.67;14.23;;;-1.60;99.90;;;;;;4861883;29;20510;-90
2023/01/21 02:04:19;;;;;;;29.00;14.97;;;-1.50;99.90;;;;;;4861507;29;20188;-90
2023/01/21 02:06:46;;;;;;;27.07;14.43;;;-1.50;99.90;;;;;;4861067;29;20286;-90
2023/01/21 02:09:12;;;;;;;27.30;14.33;;;-1.50;99.90;;;;;;4861475;29;20620;-89
2023/01/21 02:11:38;;;;;;;27.10;14.37;;;-1.40;99.90;;;;;;4861341;29;20191;-90
2023/01/21 02:14:04;;;;;;;26.53;14.50;;;-1.40;99.90;;;;;;4860812;29;20218;-90
2023/01/21 02:17:03;;;;;;;33.50;14.77;;;-1.40;99.90;;;;;;4862463;29;20206;-90
2023/01/21 02:19:41;;;;;;;31.17;16.07;;;-1.40;99.90;;;;;;4846103;29;20252;-89
2023/01/21 02:22:25;;;;;;;29.27;14.40;;;-1.40;99.90;;;;;;4846060;29;20187;-90
2023/01/21 02:25:16;;;;;;;33.10;15.43;;;-1.40;99.90;;;;;;4845902;29;20220;-90
2023/01/21 02:27:45;;;;;;;30.93;15.27;;;-1.40;99.90;;;;;;4845939;29;20177;-90
2023/01/21 02:30:28;;;;;;;25.73;14.60;;;-1.30;99.90;;;;;;4845487;29;20188;-90
2023/01/21 02:33:03;;;;;;;30.37;16.13;;;-1.30;99.90;;;;;;4862386;29;20173;-90
2023/01/21 02:35:34;;;;;;;40.47;17.20;;;-1.30;99.90;;;;;;4846232;29;20635;-90
2023/01/21 02:38:18;;;;;;;25.83;14.23;;;-1.30;99.90;;;;;;4845835;29;20180;-90
2023/01/21 02:41:05;;;;;;;32.97;16.73;;;-1.20;99.90;;;;;;4845805;29;20198;-90
2023/01/21 02:43:56;;;;;;;31.67;15.70;;;-1.20;99.90;;;;;;4840935;29;20261;-90
2023/01/21 02:46:36;;;;;;;26.17;14.53;;;-1.20;99.90;;;;;;4827602;29;20528;-90
2023/01/21 02:49:11;;;;;;;28.67;14.83;;;-1.20;99.90;;;;;;4827586;29;20185;-90
2023/01/21 02:51:37;;;;;;;28.17;15.17;;;-1.20;99.90;;;;;;4827722;29;20219;-90
2023/01/21 02:54:33;;;;;;;28.93;15.83;;;-1.20;99.90;;;;;;4827378;29;20217;-91
2023/01/21 02:56:59;;;;;;;28.90;15.37;;;-1.20;99.90;;;;;;4833755;29;20201;-91
2023/01/21 02:59:24;;;;;;;31.27;15.90;;;-1.10;99.90;;;;;;4827123;29;20182;-90
2023/01/21 03:01:59;;;;;;;31.50;17.10;;;-1.10;99.90;;;;;;4827549;29;20197;-91
2023/01/21 03:04:51;;;;;;;33.27;17.53;;;-1.10;99.90;;;;;;4843756;29;20169;-91
2023/01/21 03:07:25;;;;;;;30.83;16.83;;;-1.20;99.90;;;;;;4827369;29;20637;-90
2023/01/21 03:09:53;;;;;;;32.90;15.57;;;-1.10;99.90;;;;;;4842296;29;20179;-90
2023/01/21 03:12:27;;;;;;;27.83;14.47;;;-1.10;99.90;;;;;;4827044;29;20260;-90
2023/01/21 03:18:08;;;;;;;27.60;15.07;;;-1.10;99.90;;;;;;4844975;29;20265;-91
2023/01/21 03:20:42;;;;;;;35.13;15.57;;;-1.10;99.90;;;;;;4830329;29;20188;-91
2023/01/21 03:23:18;;;;;;;31.60;15.23;;;-1.00;99.90;;;;;;4830502;29;20177;-91
2023/01/21 03:25:48;;;;;;;28.93;14.20;;;-1.00;99.90;;;;;;4830243;29;20217;-91
2023/01/21 03:28:20;;;;;;;30.93;15.50;;;-1.10;99.90;;;;;;4830356;29;20653;-91
2023/01/21 03:30:55;;;;;;;25.17;14.50;;;-1.00;99.90;;;;;;4829946;29;20180;-91
2023/01/21 03:33:22;;;;;;;27.23;14.70;;;-1.00;99.90;;;;;;4830162;29;20284;-91
2023/01/21 03:35:54;;;;;;;28.03;14.37;;;-1.00;99.90;;;;;;4830031;29;20215;-91
2023/01/21 03:38:48;;;;;;;28.43;14.00;;;-1.00;99.90;;;;;;4846675;29;20264;-91
2023/01/21 03:41:21;;;;;;;28.03;14.27;;;-1.00;99.90;;;;;;4827154;29;20221;-91
2023/01/21 03:43:47;;;;;;;29.20;14.27;;;-1.00;99.90;;;;;;4835971;29;20244;-90
2023/01/21 03:46:36;;;;;;;27.60;14.63;;;-1.00;99.90;;;;;;4863684;29;20216;-91
2023/01/21 03:49:24;;;;;;;28.47;14.27;;;-0.90;99.90;;;;;;4863632;29;20207;-91
2023/01/21 03:51:53;;;;;;;26.63;14.20;;;-1.00;99.90;;;;;;4864226;29;20234;-91
2023/01/21 03:54:19;;;;;;;28.77;13.90;;;-0.90;99.90;;;;;;4863508;29;20308;-91
2023/01/21 03:56:48;;;;;;;25.10;13.77;;;-1.00;99.90;;;;;;4863535;29;20196;-90
2023/01/21 03:59:13;;;;;;;29.23;14.97;;;-0.90;99.90;;;;;;4864551;29;20196;-91
2023/01/21 04:01:40;;;;;;;24.87;14.43;;;-0.90;99.90;;;;;;4863414;29;20624;-89
2023/01/21 04:04:06;;;;;;;27.60;13.83;;;-0.90;99.90;;;;;;4863499;29;20204;-90
2023/01/21 04:06:35;;;;;;;28.63;13.80;;;-0.90;99.90;;;;;;4863521;29;20222;-89
2023/01/21 04:09:03;;;;;;;29.03;14.50;;;-0.90;99.90;;;;;;4864575;29;20169;-89
2023/01/21 04:11:28;;;;;;;27.27;14.30;;;-0.80;99.90;;;;;;4863409;29;20643;-89
2023/01/21 04:13:54;;;;;;;30.53;14.40;;;-0.90;99.90;;;;;;4862990;29;20189;-89
2023/01/21 04:16:21;;;;;;;29.07;14.63;;;-0.90;99.90;;;;;;4847942;29;20192;-89
2023/01/21 04:18:46;;;;;;;28.00;14.73;;;-0.80;99.90;;;;;;4847833;29;20185;-89
2023/01/21 04:21:12;;;;;;;28.30;14.13;;;-0.80;99.90;;;;;;4847941;29;20188;-88
2023/01/21 04:23:38;;;;;;;25.00;13.73;;;-0.80;99.90;;;;;;4847823;29;20265;-89
2023/01/21 04:26:06;;;;;;;28.63;15.10;;;-0.80;99.90;;;;;;4864358;29;20561;-90
2023/01/21 04:28:32;;;;;;;28.83;14.63;;;-0.90;99.90;;;;;;4847882;29;20173;-89
2023/01/21 04:30:58;;;;;;;27.67;13.47;;;-0.90;99.90;;;;;;4847488;29;20248;-89
2023/01/21 04:33:24;;;;;;;29.57;14.90;;;-0.90;99.90;;;;;;4847623;29;20220;-91
2023/01/21 04:35:50;;;;;;;27.20;14.30;;;-0.90;99.90;;;;;;4847528;29;20216;-90
2023/01/21 04:38:16;;;;;;;27.37;14.63;;;-0.90;99.90;;;;;;4847586;29;20186;-89
2023/01/21 04:40:42;;;;;;;25.20;13.47;;;-0.90;99.90;;;;;;4847530;29;20197;-89
2023/01/21 04:43:08;;;;;;;28.53;13.87;;;-0.90;99.90;;;;;;4862483;29;20236;-90
2023/01/21 04:45:33;;;;;;;25.93;13.37;;;-0.90;99.90;;;;;;4862351;29;20220;-89
2023/01/21 04:47:59;;;;;;;29.23;14.27;;;-1.00;99.90;;;;;;4862652;29;20529;-90
2023/01/21 04:50:25;;;;;;;27.73;13.80;;;-1.00;99.90;;;;;;4862561;29;20212;-89
2023/01/21 04:52:50;;;;;;;26.27;14.33;;;-1.00;99.90;;;;;;4863699;29;20180;-89
2023/01/21 04:55:16;;;;;;;25.23;13.53;;;-1.10;99.90;;;;;;4862401;29;20189;-89
2023/01/21 04:57:44;;;;;;;28.63;13.90;;;-1.10;99.90;;;;;;4862440;29;20185;-89
2023/01/21 05:00:10;;;;;;;25.47;13.77;;;-1.10;99.90;;;;;;4862243;29;20224;-89
2023/01/21 05:02:35;;;;;;;27.43;13.50;;;-1.10;99.90;;;;;;4862337;29;20219;-89
2023/01/21 05:05:01;;;;;;;28.30;14.20;;;-1.10;99.90;;;;;;4862225;29;20249;-89
2023/01/21 05:07:38;;;;;;;29.60;14.20;;;-1.10;99.90;;;;;;4862411;29;20204;-89
2023/01/21 05:10:04;;;;;;;28.77;14.67;;;-1.00;99.90;;;;;;4862358;29;20176;-90
2023/01/21 05:12:30;;;;;;;29.17;15.03;;;-1.00;99.90;;;;;;4862273;29;20584;-90
2023/01/21 05:14:58;;;;;;;28.10;14.10;;;-0.90;99.90;;;;;;4862051;29;20197;-90
2023/01/21 05:17:26;;;;;;;23.67;12.40;;;-0.90;99.90;;;;;;4846966;29;20624;-90
2023/01/21 05:19:52;;;;;;;25.73;12.13;;;-0.80;99.90;;;;;;4846964;29;20184;-90
2023/01/21 05:22:18;;;;;;;18.20;9.63;;;-0.80;99.90;;;;;;4846707;29;20196;-92
2023/01/21 05:24:43;;;;;;;23.77;10.67;;;-0.70;99.90;;;;;;4863054;29;20188;-91
2023/01/21 05:27:10;;;;;;;21.53;10.27;;;-0.80;99.90;;;;;;4846903;29;20218;-90
2023/01/21 05:29:36;;;;;;;19.97;10.63;;;-0.70;99.90;;;;;;4846641;29;20604;-89
2023/01/21 05:32:01;;;;;;;18.97;9.07;;;-0.80;99.90;;;;;;4846578;29;20199;-90
2023/01/21 05:34:27;;;;;;;17.20;8.93;;;-0.80;99.90;;;;;;4861812;29;20195;-89
2023/01/21 05:36:57;;;;;;;14.23;7.70;;;-0.80;99.90;;;;;;4846352;29;20185;-90
2023/01/21 05:39:23;;;;;;;16.67;8.80;;;-0.70;99.90;;;;;;4846471;29;20571;-88
2023/01/21 05:41:48;;;;;;;17.57;8.63;;;-0.70;99.90;;;;;;4845873;29;20192;-89
2023/01/21 05:44:14;;;;;;;17.10;9.10;;;-0.70;99.90;;;;;;4845811;29;20240;-89
2023/01/21 05:46:47;;;;;;;15.17;8.10;;;-0.80;99.90;;;;;;4846199;29;20504;-89
2023/01/21 05:49:12;;;;;;;17.77;8.97;;;-0.70;99.90;;;;;;4846580;29;20177;-89
2023/01/21 05:51:38;;;;;;;17.40;8.10;;;-0.70;99.90;;;;;;4846308;29;20188;-90
2023/01/21 05:54:04;;;;;;;16.57;8.17;;;-0.80;99.90;;;;;;4846202;29;20185;-89
2023/01/21 05:56:43;;;;;;;17.23;8.80;;;-0.80;99.90;;;;;;4862726;29;20216;-89
2023/01/21 05:59:08;;;;;;;17.50;8.73;;;-0.70;99.90;;;;;;4862385;29;20172;-90
2023/01/21 06:01:35;;;;;;;18.67;9.00;;;-0.80;99.90;;;;;;4845454;29;20180;-88
2023/01/21 06:04:01;;;;;;;19.83;8.33;;;-0.80;99.90;;;;;;4862459;29;20188;-89
2023/01/21 06:06:26;;;;;;;14.37;8.03;;;-0.80;99.90;;;;;;4845873;29;20220;-89
2023/01/21 06:08:52;;;;;;;16.83;7.77;;;-0.90;99.90;;;;;;4846038;29;20635;-92
2023/01/21 06:11:18;;;;;;;18.13;8.83;;;-0.90;99.90;;;;;;4846830;29;20180;-93
2023/01/21 06:13:43;;;;;;;16.50;7.90;;;-0.90;99.90;;;;;;4846166;29;20184;-92
2023/01/21 06:16:09;;;;;;;17.53;8.53;;;-0.90;99.90;;;;;;4846174;29;20180;-89
2023/01/21 06:18:35;;;;;;;12.63;7.50;;;-0.90;99.90;;;;;;4846099;29;20543;-90
2023/01/21 06:21:01;;;;;;;20.10;9.13;;;-0.90;99.90;;;;;;4846104;29;20192;-89
2023/01/21 06:23:27;;;;;;;16.43;8.97;;;-0.90;99.90;;;;;;4845829;29;20181;-90
2023/01/21 06:25:53;;;;;;;17.40;8.40;;;-0.90;99.90;;;;;;4845980;29;20280;-90
2023/01/21 06:28:19;;;;;;;17.10;8.77;;;-0.90;99.90;;;;;;4846092;29;20624;-90
2023/01/21 06:30:46;;;;;;;17.23;8.37;;;-0.90;99.90;;;;;;4846148;29;20196;-90
2023/01/21 06:33:12;;;;;;;16.77;7.83;;;-0.90;99.90;;;;;;4845722;29;20200;-91
2023/01/21 06:35:37;;;;;;;12.20;7.17;;;-0.80;99.90;;;;;;4845523;29;20181;-91
2023/01/21 06:38:03;;;;;;;18.17;8.70;;;-0.80;99.90;;;;;;4862020;29;20181;-91
2023/01/21 06:40:29;;;;;;;18.73;8.70;;;-0.90;99.90;;;;;;4861470;29;20577;-92
2023/01/21 06:42:54;;;;;;;15.63;8.37;;;-0.80;99.90;;;;;;4845999;29;20231;-92
2023/01/21 06:45:20;;;;;;;18.13;8.73;;;-0.80;99.90;;;;;;4862147;29;20348;-93
2023/01/21 06:47:47;;;;;;;17.23;8.13;;;-0.70;99.90;;;;;;4846065;29;20184;-91
2023/01/21 06:50:16;;;;;;;14.97;8.40;;;-0.70;99.90;;;;;;4846002;29;20612;-91
2023/01/21 06:52:44;;;;;;;17.90;8.80;;;-0.70;99.90;;;;;;4846999;29;20198;-92
2023/01/21 06:55:10;;;;;;;15.33;7.87;;;-0.70;99.90;;;;;;4866065;29;20627;-91
2023/01/21 06:57:37;;;;;;;15.43;7.53;;;-0.80;99.90;;;;;;4849622;29;20202;-91
2023/01/21 07:00:04;;;;;;;15.27;8.63;;;-0.80;99.90;;;;;;4849484;29;20640;-92
2023/01/21 07:02:30;;;;;;;18.93;8.17;;;-0.90;99.90;;;;;;4849382;29;20245;-91
2023/01/21 07:04:55;;;;;;;13.73;7.60;;;-0.80;99.90;;;;;;4865875;29;20185;-90
2023/01/21 07:07:22;;;;;;;16.63;7.83;;;-0.80;99.90;;;;;;4849471;29;20279;-90
2023/01/21 07:09:48;;;;;;;14.90;8.00;;;-0.80;99.90;;;;;;4849287;29;20180;-90
2023/01/21 07:12:13;;;;;;;16.47;7.93;;;-0.90;99.90;;;;;;4849105;29;20574;-89
2023/01/21 07:14:39;;;;;;;17.07;8.27;;;-0.80;99.90;;;;;;4848925;29;20181;-89
2023/01/21 07:17:05;;;;;;;16.07;8.73;;;-0.80;99.90;;;;;;4849033;29;20508;-90
2023/01/21 07:19:31;;;;;;;13.47;7.57;;;-0.80;99.90;;;;;;4849123;29;20219;-88
2023/01/21 07:21:56;;;;;;;16.00;7.47;;;-0.80;99.90;;;;;;4848886;29;20191;-90
2023/01/21 07:24:22;;;;;;;20.47;8.00;;;-0.80;99.90;;;;;;4848777;29;20185;-89
2023/01/21 07:26:48;;;;;;;21.70;8.80;;;-0.80;99.90;;;;;;4848841;29;20257;-89
2023/01/21 07:29:13;;;;;;;16.80;8.50;;;-0.80;99.90;;;;;;4848653;29;20523;-89
2023/01/21 07:31:39;;;;;;;15.90;8.83;;;-0.80;99.90;;;;;;4848911;29;20506;-89
2023/01/21 07:34:05;;;;;;;15.07;7.70;;;-0.80;99.90;;;;;;4848502;29;20340;-90
2023/01/21 07:36:31;;;;;;;20.93;8.50;;;-0.80;99.90;;;;;;4848734;29;20705;-89
2023/01/21 07:39:03;;;;;;;14.50;7.43;;;-0.80;99.90;;;;;;4848653;29;20272;-89
2023/01/21 07:41:29;;;;;;;19.07;8.17;;;-0.80;99.90;;;;;;4848692;29;20629;-89
2023/01/21 07:43:54;;;;;;;17.27;8.07;;;-0.80;99.90;;;;;;4848181;29;20224;-89
2023/01/21 07:46:21;;;;;;;26.70;11.97;;;-0.80;99.90;;;;;;4848458;29;20302;-90
2023/01/21 07:48:50;;;;;;;22.50;12.13;;;-0.90;99.90;;;;;;4863787;29;20202;-89
2023/01/21 07:51:17;;;;;;;17.87;9.07;;;-0.80;99.90;;;;;;4863520;29;20523;-89
2023/01/21 07:53:43;;;;;;;20.10;10.40;;;-0.80;99.90;;;;;;4847864;29;20260;-89
2023/01/21 07:56:10;;;;;;;19.20;8.10;;;-0.80;99.90;;;;;;4864850;29;20628;-89
2023/01/21 07:58:37;;;;;;;22.30;8.17;;;-0.80;99.90;;;;;;4848493;29;20177;-89
2023/01/21 08:01:07;;;;;;;15.87;8.20;;;-0.70;99.90;;;;;;4848291;29;20205;-90
2023/01/21 08:03:36;;;;;;;17.63;8.87;;;-0.80;99.90;;;;;;4847945;29;20188;-89
2023/01/21 08:06:03;;;;;;;17.87;8.77;;;-0.80;99.90;;;;;;4863738;29;20245;-89
2023/01/21 08:08:30;;;;;;;18.30;8.60;;;-0.80;99.90;;;;;;4863763;29;20185;-90
2023/01/21 08:10:55;;;;;;;18.90;8.63;;;-0.80;99.90;;;;;;4864710;29;20175;-89
2023/01/21 08:13:22;;;;;;;17.40;9.40;;;-0.80;99.90;;;;;;4863396;29;20181;-89
2023/01/21 08:15:55;;;;;;;20.40;10.07;;;-0.70;99.90;;;;;;4864446;29;20233;-89
2023/01/21 08:18:23;;;;;;;18.40;10.27;;;-0.70;99.90;;;;;;4848054;29;20587;-89
2023/01/21 08:20:54;;;;;;;23.13;10.77;;;-0.70;99.90;;;;;;4848220;29;20557;-90
2023/01/21 08:23:20;;;;;;;22.07;12.50;;;-0.70;99.90;;;;;;4847950;29;20526;-91
2023/01/21 08:25:45;;;;;;;21.37;10.80;;;-0.70;99.90;;;;;;4848190;29;20212;-91
2023/01/21 08:28:13;;;;;;;25.10;12.43;;;-0.70;99.90;;;;;;4848122;29;20196;-91
2023/01/21 08:30:38;;;;;;;19.43;10.30;;;-0.70;99.90;;;;;;4847981;29;20687;-91
2023/01/21 08:33:04;;;;;;;24.83;12.53;;;-0.70;99.90;;;;;;4847777;29;20228;-92
2023/01/21 08:35:30;;;;;;;20.13;10.10;;;-0.70;99.90;;;;;;4847947;29;20271;-92
2023/01/21 08:37:57;;;;;;;25.93;11.47;;;-0.70;99.90;;;;;;4847945;29;20628;-91
2023/01/21 08:40:25;;;;;;;22.60;10.40;;;-0.70;99.90;;;;;;4847735;29;20176;-90
2023/01/21 08:43:01;;;;;;;20.10;10.23;;;-0.60;99.90;;;;;;4847393;29;20247;-91
2023/01/21 08:45:27;;;;;;;26.23;11.83;;;-0.60;99.90;;;;;;4847237;29;20223;-91
2023/01/21 08:48:00;;;;;;;21.93;10.80;;;-0.60;99.90;;;;;;4847551;29;20216;-90
2023/01/21 08:50:26;;;;;;;24.37;11.30;;;-0.60;99.90;;;;;;4847545;29;20302;-93
2023/01/21 08:52:53;;;;;;;23.07;11.30;;;-0.50;99.90;;;;;;4847481;29;20682;-91
2023/01/21 08:55:20;;;;;;;30.10;14.23;;;-0.50;99.90;;;;;;4847533;29;20263;-91
2023/01/21 08:57:50;;;;;;;27.87;11.63;;;-0.50;99.90;;;;;;4863980;29;20178;-91
2023/01/21 09:00:17;;;;;;;26.13;11.97;;;-0.40;99.90;;;;;;4847161;29;20181;-93
2023/01/21 09:02:43;;;;;;;31.47;13.20;;;-0.40;99.90;;;;;;4846603;29;20517;-91
2023/01/21 09:05:09;;;;;;;26.60;12.90;;;-0.40;99.90;;;;;;4847188;29;20221;-92
2023/01/21 09:07:40;;;;;;;26.90;12.93;;;-0.30;99.90;;;;;;4862642;29;20185;-92
2023/01/21 09:10:06;;;;;;;24.73;12.57;;;-0.30;99.90;;;;;;4847190;29;20217;-91
2023/01/21 09:12:32;;;;;;;23.90;11.63;;;-0.30;99.90;;;;;;4847254;29;20712;-90
2023/01/21 09:14:58;;;;;;;28.67;13.30;;;-0.20;99.90;;;;;;4846400;29;20275;-91
2023/01/21 09:17:24;;;;;;;24.93;12.07;;;-0.10;99.90;;;;;;4847154;29;20498;-92
2023/01/21 09:19:49;;;;;;;26.20;12.83;;;-0.10;99.90;;;;;;4847011;29;20217;-91
2023/01/21 09:22:15;;;;;;;24.27;11.77;;;-0.20;99.90;;;;;;4847066;29;20181;-91
2023/01/21 09:24:41;;;;;;;23.60;12.57;;;-0.10;99.90;;;;;;4846730;29;20245;-92
2023/01/21 09:27:08;;;;;;;25.10;12.70;;;-0.10;99.90;;;;;;4862161;29;20656;-90
2023/01/21 09:29:41;;;;;;;28.07;12.27;;;0.00;99.90;;;;;;4846794;29;20208;-92
2023/01/21 09:32:07;;;;;;;21.97;11.33;;;0.00;99.90;;;;;;4846880;29;20263;-92
2023/01/21 09:34:33;;;;;;;25.47;11.93;;;0.10;99.90;;;;;;4846767;29;20628;-91
2023/01/21 09:36:58;;;;;;;25.20;11.70;;;0.10;99.90;;;;;;4846905;29;20212;-91
2023/01/21 09:39:35;;;;;;;22.97;11.80;;;0.10;99.90;;;;;;4846781;29;20184;-92
2023/01/21 09:42:01;;;;;;;23.40;12.27;;;0.10;99.90;;;;;;4846826;29;20294;-93
2023/01/21 09:44:43;;;;;;;25.03;11.47;;;0.20;99.90;;;;;;4846574;29;20232;-93
2023/01/21 09:47:40;;;;;;;21.57;10.70;;;0.20;99.90;;;;;;4846672;29;20220;-92
2023/01/21 09:50:18;;;;;;;27.73;11.03;;;0.30;99.90;;;;;;4836023;29;20193;-92
2023/01/21 09:52:52;;;;;;;24.63;10.83;;;0.30;99.90;;;;;;4863400;29;20192;-91
2023/01/21 09:55:19;;;;;;;23.00;11.13;;;0.30;99.90;;;;;;4846930;29;20266;-93
2023/01/21 09:58:23;;;;;;;18.77;10.07;;;0.40;99.90;;;;;;4846664;29;20191;-92
2023/01/21 10:00:53;;;;;;;22.93;10.57;;;0.50;99.90;;;;;;4846410;29;20279;-91
2023/01/21 10:04:00;;;;;;;18.50;10.20;;;0.50;99.90;;;;;;4846529;29;20216;-90
2023/01/21 10:06:58;;;;;;;24.73;10.47;;;0.60;99.90;;;;;;4846951;29;20232;-90
2023/01/21 10:09:56;;;;;;;20.13;10.20;;;0.60;99.90;;;;;;4862595;29;20665;-90
2023/01/21 10:12:50;;;;;;;19.07;9.90;;;0.70;99.90;;;;;;4846624;29;20211;-90
2023/01/21 10:15:34;;;;;;;14.97;8.60;;;0.70;99.90;;;;;;4846186;29;20664;-90
2023/01/21 10:18:02;;;;;;;20.47;9.40;;;0.80;99.90;;;;;;4846532;29;20697;-90
2023/01/21 10:20:55;;;;;;;18.07;9.27;;;0.80;99.90;;;;;;4846351;29;20267;-89
2023/01/21 10:23:58;;;;;;;19.27;9.73;;;0.80;99.90;;;;;;4846158;29;20527;-89
2023/01/21 10:26:26;;;;;;;19.80;9.57;;;0.90;99.90;;;;;;4818304;29;20246;-90
2023/01/21 10:28:59;;;;;;;16.83;9.17;;;1.00;99.90;;;;;;4850042;29;20193;-90
2023/01/21 10:31:41;;;;;;;21.67;9.63;;;1.10;99.90;;;;;;4849642;29;20610;-90
2023/01/21 10:34:13;;;;;;;15.80;9.57;;;1.10;99.90;;;;;;4849841;29;20209;-89
2023/01/21 10:36:50;;;;;;;19.07;10.00;;;1.10;99.90;;;;;;4849929;29;20180;-90
2023/01/21 10:39:35;;;;;;;19.80;10.47;;;1.20;99.90;;;;;;4866447;29;20220;-90
2023/01/21 10:42:35;;;;;;;19.17;10.40;;;1.20;99.90;;;;;;4849888;29;20570;-90
2023/01/21 10:45:19;;;;;;;20.03;9.77;;;1.20;99.90;;;;;;4839506;29;20204;-90
2023/01/21 10:48:08;;;;;;;16.37;9.00;;;1.30;99.90;;;;;;4849648;29;20180;-91
2023/01/21 10:50:54;;;;;;;19.57;9.00;;;1.30;99.90;;;;;;4849522;29;20280;-91
2023/01/21 10:53:40;;;;;;;17.97;8.30;;;1.20;99.90;;;;;;4849644;29;20265;-90
2023/01/21 10:56:18;;;;;;;15.40;8.07;;;1.30;99.90;;;;;;4866237;29;20323;-90
2023/01/21 10:58:54;;;;;;;14.87;8.47;;;1.40;99.90;;;;;;4866011;29;20181;-90
2023/01/21 11:01:25;;;;;;;13.87;8.20;;;1.50;99.90;;;;;;4849278;29;20267;-90
2023/01/21 11:03:59;;;;;;;16.57;8.20;;;1.50;99.90;;;;;;4849372;29;20199;-91
2023/01/21 11:06:28;;;;;;;14.83;8.53;;;1.50;99.90;;;;;;4865831;29;20204;-90
2023/01/21 11:09:01;;;;;;;14.10;8.47;;;1.70;99.90;;;;;;4849592;29;20585;-90
2023/01/21 11:11:32;;;;;;;15.80;9.33;;;1.70;99.90;;;;;;4849392;29;20263;-89
2023/01/21 11:13:58;;;;;;;13.70;7.73;;;1.80;99.90;;;;;;4865930;29;20229;-91
2023/01/21 11:16:46;;;;;;;14.27;7.73;;;1.80;99.90;;;;;;4865712;29;20195;-92
2023/01/21 11:19:29;;;;;;;16.63;8.30;;;1.80;99.90;;;;;;4849535;29;20199;-91
2023/01/21 11:22:12;;;;;;;13.33;7.40;;;1.90;99.90;;;;;;4849354;29;20264;-92
2023/01/21 11:24:47;;;;;;;14.13;7.57;;;1.90;99.90;;;;;;4849015;29;20703;-91
2023/01/21 11:27:33;;;;;;;12.70;6.87;;;2.10;99.90;;;;;;4849200;29;20565;-91
2023/01/21 11:30:27;;;;;;;14.40;7.43;;;2.10;99.90;;;;;;4865264;29;20181;-91
2023/01/21 11:32:52;;;;;;;13.13;7.50;;;2.20;99.90;;;;;;4848662;29;20701;-92
2023/01/21 11:35:21;;;;;;;13.40;7.20;;;2.30;99.90;;;;;;4848964;29;20192;-90
2023/01/21 11:37:47;;;;;;;13.27;7.33;;;2.30;99.90;;;;;;4848495;29;20177;-89
2023/01/21 11:40:25;;;;;;;15.90;8.17;;;2.30;99.90;;;;;;4848304;29;20188;-90
2023/01/21 11:42:53;;;;;;;16.73;7.50;;;2.30;99.90;;;;;;4848552;29;20184;-91
2023/01/21 11:45:28;;;;;;;14.77;8.00;;;2.20;99.90;;;;;;4848262;29;20218;-90
2023/01/21 11:47:54;;;;;;;16.07;8.33;;;2.10;99.90;;;;;;4848673;29;20192;-91
2023/01/21 11:50:30;;;;;;;14.77;7.57;;;2.20;99.90;;;;;;4848630;29;20181;-89
2023/01/21 11:53:16;;;;;;;15.57;8.33;;;2.30;99.90;;;;;;4864800;29;20172;-91
2023/01/21 11:55:48;;;;;;;17.60;8.47;;;2.40;99.90;;;;;;4848574;29;20181;-90
2023/01/21 11:58:18;;;;;;;18.23;8.90;;;2.50;99.90;;;;;;4864963;29;20173;-90
2023/01/21 12:00:49;;;;;;;18.23;8.23;;;2.60;99.90;;;;;;4864837;29;20528;-91
2023/01/21 12:03:19;;;;;;;16.83;8.50;;;2.50;99.90;;;;;;4863093;29;20188;-91
2023/01/21 12:05:51;;;;;;;17.63;8.67;;;2.50;99.90;;;;;;4864948;29;20204;-90
2023/01/21 12:08:20;;;;;;;16.23;8.27;;;2.60;99.90;;;;;;4864930;29;20177;-89
2023/01/21 12:10:47;;;;;;;14.57;7.90;;;2.50;99.90;;;;;;4848260;29;20270;-90
2023/01/21 12:13:21;;;;;;;14.77;8.27;;;2.40;99.90;;;;;;4847882;29;20232;-89
2023/01/21 12:16:02;;;;;;;16.57;9.00;;;2.40;99.90;;;;;;4847595;29;20196;-91
2023/01/21 12:18:40;;;;;;;16.40;8.37;;;2.50;99.90;;;;;;4848269;29;20181;-90
2023/01/21 12:21:19;;;;;;;16.00;8.40;;;2.50;99.90;;;;;;4848000;29;20188;-91
2023/01/21 12:23:51;;;;;;;16.30;8.57;;;2.50;99.90;;;;;;4847986;29;20173;-91
2023/01/21 12:26:32;;;;;;;20.83;9.50;;;2.50;99.90;;;;;;4864427;29;20240;-90
2023/01/21 12:29:25;;;;;;;19.70;8.47;;;2.50;99.90;;;;;;4848271;29;20287;-90
2023/01/21 12:32:28;;;;;;;17.80;8.60;;;2.50;99.90;;;;;;4847533;29;20267;-89
2023/01/21 12:35:16;;;;;;;19.13;8.50;;;2.50;99.90;;;;;;4847258;29;20184;-89
2023/01/21 12:37:52;;;;;;;14.50;7.97;;;2.50;99.90;;;;;;4847460;29;20314;-91
2023/01/21 12:40:28;;;;;;;19.60;8.87;;;2.50;99.90;;;;;;4847344;29;20180;-90
2023/01/21 12:42:58;;;;;;;18.13;8.77;;;2.50;99.90;;;;;;4847332;29;20321;-86
2023/01/21 12:45:43;;;;;;;17.17;8.37;;;2.50;99.90;;;;;;4846588;29;20218;-87
2023/01/21 12:48:17;;;;;;;18.07;7.90;;;2.50;99.90;;;;;;4863326;29;20176;-87
2023/01/21 12:50:53;;;;;;;17.03;8.50;;;2.50;99.90;;;;;;4847139;29;20221;-87
2023/01/21 12:53:57;;;;;;;16.43;8.80;;;2.50;99.90;;;;;;4847130;29;20179;-88
2023/01/21 12:56:42;;;;;;;18.90;8.00;;;2.50;99.90;;;;;;4792148;29;20182;-88